createdAt,value
2022-09-11T00:00:43.259Z,13.01
2022-09-11T00:13:51.256Z,12.99
2022-09-11T00:14:54.820Z,13.04
2022-09-11T00:15:59.571Z,13.08
2022-09-11T00:17:03.475Z,13.12
2022-09-11T00:18:09.277Z,13.17
2022-09-11T00:19:16.176Z,13.19
2022-09-11T00:20:21.701Z,13.18
2022-09-11T00:21:26.370Z,13.19
2022-09-11T00:22:34.234Z,13.21
2022-09-11T00:23:41.157Z,13.22
2022-09-11T00:24:46.078Z,13.23
2022-09-11T00:34:03.103Z,13.19
2022-09-11T00:35:08.330Z,13.19
2022-09-11T00:36:15.995Z,13.19
2022-09-11T00:37:19.814Z,13.18
2022-09-11T00:38:24.798Z,13.21
2022-09-11T00:39:29.278Z,13.20
2022-09-11T00:40:33.019Z,13.19
2022-09-11T00:41:39.262Z,13.21
2022-09-11T00:42:43.497Z,13.22
2022-09-11T00:43:54.101Z,13.21
2022-09-11T00:45:03.900Z,13.20
2022-09-11T00:46:09.148Z,13.19
2022-09-11T00:47:15.522Z,13.19
2022-09-11T00:48:25.060Z,13.17
2022-09-11T00:49:34.324Z,13.18
2022-09-11T00:50:38.209Z,13.18
2022-09-11T00:51:43.578Z,13.17
2022-09-11T00:52:53.073Z,13.16
2022-09-11T00:53:58.901Z,13.15
2022-09-11T00:55:05.945Z,13.15
2022-09-11T00:56:11.956Z,13.16
2022-09-11T00:57:15.199Z,13.16
2022-09-11T00:58:21.529Z,13.16
2022-09-11T00:59:27.390Z,13.17
2022-09-11T01:00:32.558Z,13.21
2022-09-11T01:01:37.597Z,13.22
2022-09-11T01:02:45.159Z,13.24
2022-09-11T01:03:48.607Z,13.25
2022-09-11T01:04:54.949Z,13.26
2022-09-11T01:05:58.882Z,13.27
2022-09-11T01:07:04.770Z,13.29
2022-09-11T01:08:08.498Z,13.32
2022-09-11T01:09:13.181Z,13.32
2022-09-11T01:10:17.365Z,13.32
2022-09-11T01:11:32.499Z,13.34
2022-09-11T01:12:42.265Z,13.37
2022-09-11T01:13:51.087Z,13.38
2022-09-11T01:14:58.926Z,13.40
2022-09-11T01:16:10.469Z,13.41
2022-09-11T01:17:21.265Z,13.42
2022-09-11T01:18:29.850Z,13.42
2022-09-11T01:19:49.666Z,13.43
2022-09-11T01:21:14.142Z,13.45
2022-09-11T01:22:36.416Z,13.45
2022-09-11T01:24:24.096Z,13.48
2022-09-11T01:25:32.562Z,13.49
2022-09-11T01:26:49.494Z,13.50
2022-09-11T01:27:54.863Z,13.52
2022-09-11T01:29:03.169Z,13.53
2022-09-11T01:30:11.706Z,13.54
2022-09-11T01:31:19.837Z,13.54
2022-09-11T01:32:24.904Z,13.54
2022-09-11T01:33:32.247Z,13.54
2022-09-11T01:34:39.940Z,13.56
2022-09-11T01:35:54.254Z,13.58
2022-09-11T01:37:01.726Z,13.60
2022-09-11T01:38:09.923Z,13.62
2022-09-11T01:39:14.840Z,13.61
2022-09-11T01:40:28.234Z,13.60
2022-09-11T01:41:41.129Z,13.60
2022-09-11T01:42:46.463Z,13.59
2022-09-11T01:43:56.661Z,13.58
2022-09-11T01:45:00.811Z,13.55
2022-09-11T01:46:10.579Z,13.54
2022-09-11T01:47:15.962Z,13.54
2022-09-11T01:48:25.092Z,13.56
2022-09-11T01:49:35.559Z,13.55
2022-09-11T01:50:41.045Z,13.57
2022-09-11T01:51:46.062Z,13.60
2022-09-11T01:52:54.710Z,13.60
2022-09-11T01:54:00.521Z,13.60
2022-09-11T01:55:24.561Z,13.58
2022-09-11T01:56:32.087Z,13.57
2022-09-11T01:57:38.834Z,13.55
2022-09-11T01:58:44.190Z,13.54
2022-09-11T02:00:18.447Z,13.54
2022-09-11T02:01:31.810Z,13.53
2022-09-11T02:02:58.216Z,13.53
2022-09-11T02:04:07.651Z,13.54
2022-09-11T02:06:45.371Z,13.55
2022-09-11T02:07:53.829Z,13.57
2022-09-11T02:09:00.435Z,13.58
2022-09-11T02:10:09.591Z,13.58
2022-09-11T02:11:22.732Z,13.59
2022-09-11T02:12:31.730Z,13.57
2022-09-11T02:13:39.946Z,13.56
2022-09-11T02:15:07.524Z,13.51
2022-09-11T02:16:35.888Z,13.50
2022-09-11T02:17:48.465Z,13.49
2022-09-11T02:18:58.661Z,13.52
2022-09-11T02:20:03.964Z,13.52
2022-09-11T02:21:07.610Z,13.53
2022-09-11T02:22:13.739Z,13.50
2022-09-11T02:23:17.806Z,13.49
2022-09-11T02:24:24.303Z,13.47
2022-09-11T02:25:28.066Z,13.46
2022-09-11T02:26:39.171Z,13.45
2022-09-11T02:27:43.765Z,13.44
2022-09-11T02:28:48.926Z,13.44
2022-09-11T02:29:54.226Z,13.44
2022-09-11T02:31:08.121Z,13.42
2022-09-11T02:32:13.932Z,13.39
2022-09-11T02:33:31.143Z,13.35
2022-09-11T02:34:36.360Z,13.33
2022-09-11T02:35:47.188Z,13.30
2022-09-11T02:37:09.571Z,13.28
2022-09-11T02:38:19.441Z,13.24
2022-09-11T02:39:45.840Z,13.24
2022-09-11T02:40:56.832Z,13.23
2022-09-11T02:42:24.952Z,13.24
2022-09-11T02:43:47.435Z,13.23
2022-09-11T02:44:58.650Z,13.24
2022-09-11T02:46:19.805Z,13.23
2022-09-11T02:47:33.262Z,13.24
2022-09-11T02:48:47.672Z,13.21
2022-09-11T02:50:00.023Z,13.19
2022-09-11T02:51:10.418Z,13.19
2022-09-11T02:52:21.190Z,13.19
2022-09-11T02:53:31.141Z,13.18
2022-09-11T02:54:40.691Z,13.19
2022-09-11T02:55:57.312Z,13.18
2022-09-11T02:57:05.203Z,13.17
2022-09-11T02:58:13.822Z,13.18
2022-09-11T02:59:21.324Z,13.17
2022-09-11T03:00:25.730Z,13.17
2022-09-11T03:01:29.276Z,13.17
2022-09-11T03:02:42.100Z,13.18
2022-09-11T03:03:47.169Z,13.17
2022-09-11T03:04:51.963Z,13.17
2022-09-11T03:05:56.133Z,13.17
2022-09-11T03:07:01.419Z,13.18
2022-09-11T03:08:08.034Z,13.18
2022-09-11T03:09:13.344Z,13.21
2022-09-11T03:10:17.040Z,13.21
2022-09-11T03:11:30.922Z,13.20
2022-09-11T03:12:57.451Z,13.22
2022-09-11T03:14:00.553Z,13.21
2022-09-11T03:15:06.055Z,13.20
2022-09-11T03:16:10.699Z,13.20
2022-09-11T03:17:14.917Z,13.19
2022-09-11T03:18:21.322Z,13.19
2022-09-11T03:19:25.319Z,13.18
2022-09-11T03:20:29.872Z,13.17
2022-09-11T03:21:34.060Z,13.17
2022-09-11T03:22:40.050Z,13.18
2022-09-11T03:23:43.658Z,13.17
2022-09-11T03:24:48.534Z,13.19
2022-09-11T03:25:52.081Z,13.18
2022-09-11T03:26:57.077Z,13.18
2022-09-11T03:28:00.861Z,13.18
2022-09-11T03:29:05.973Z,13.19
2022-09-11T03:30:10.319Z,13.19
2022-09-11T03:31:14.907Z,13.19
2022-09-11T03:32:19.531Z,13.21
2022-09-11T03:33:26.488Z,13.23
2022-09-11T03:34:30.252Z,13.24
2022-09-11T03:35:34.693Z,13.24
2022-09-11T03:36:40.472Z,13.25
2022-09-11T03:37:43.995Z,13.23
2022-09-11T03:38:49.139Z,13.24
2022-09-11T03:39:54.975Z,13.26
2022-09-11T03:41:00.003Z,13.26
2022-09-11T03:42:03.965Z,13.27
2022-09-11T03:43:09.766Z,13.28
2022-09-11T03:44:14.027Z,13.29
2022-09-11T03:45:18.619Z,13.29
2022-09-11T03:46:24.753Z,13.28
2022-09-11T03:47:29.789Z,13.29
2022-09-11T03:48:35.582Z,13.31
2022-09-11T03:49:40.005Z,13.32
2022-09-11T03:50:44.055Z,13.32
2022-09-11T03:51:48.791Z,13.33
2022-09-11T03:52:52.012Z,13.33
2022-09-11T03:53:56.102Z,13.34
2022-09-11T03:54:59.434Z,13.33
2022-09-11T03:56:06.720Z,13.34
2022-09-11T03:57:16.471Z,13.36
2022-09-11T03:58:20.909Z,13.37
2022-09-11T03:59:23.920Z,13.38
2022-09-11T04:00:28.307Z,13.41
2022-09-11T04:01:33.127Z,13.41
2022-09-11T04:02:37.191Z,13.42
2022-09-11T04:03:42.365Z,13.42
2022-09-11T04:04:52.374Z,13.44
2022-09-11T04:05:59.952Z,13.46
2022-09-11T04:07:04.167Z,13.48
2022-09-11T04:08:07.299Z,13.49
2022-09-11T04:09:12.601Z,13.52
2022-09-11T04:10:15.819Z,13.53
2022-09-11T04:11:19.881Z,13.56
2022-09-11T04:12:22.980Z,13.57
2022-09-11T04:13:30.821Z,13.57
2022-09-11T04:14:36.102Z,13.57
2022-09-11T04:15:42.861Z,13.58
2022-09-11T04:16:46.569Z,13.59
2022-09-11T04:17:50.664Z,13.60
2022-09-11T04:18:56.364Z,13.62
2022-09-11T04:20:01.395Z,13.63
2022-09-11T04:21:09.091Z,13.66
2022-09-11T04:22:12.260Z,13.67
2022-09-11T04:23:17.572Z,13.68
2022-09-11T04:24:20.942Z,13.70
2022-09-11T04:25:25.033Z,13.73
2022-09-11T04:26:30.206Z,13.73
2022-09-11T04:27:42.656Z,13.73
2022-09-11T04:28:50.858Z,13.73
2022-09-11T04:29:55.211Z,13.73
2022-09-11T04:31:04.772Z,13.73
2022-09-11T04:32:11.851Z,13.73
2022-09-11T04:33:16.225Z,13.74
2022-09-11T04:34:21.799Z,13.74
2022-09-11T04:35:26.211Z,13.72
2022-09-11T04:36:33.840Z,13.75
2022-09-11T04:37:37.739Z,13.75
2022-09-11T04:38:42.151Z,13.75
2022-09-11T04:39:49.206Z,13.76
2022-09-11T04:40:53.511Z,13.75
2022-09-11T04:41:57.670Z,13.76
2022-09-11T04:43:02.500Z,13.77
2022-09-11T04:44:05.863Z,13.80
2022-09-11T04:45:16.593Z,13.81
2022-09-11T04:46:20.470Z,13.82
2022-09-11T04:47:25.059Z,13.84
2022-09-11T04:48:28.099Z,13.85
2022-09-11T04:49:34.003Z,13.86
2022-09-11T04:50:37.252Z,13.88
2022-09-11T04:51:52.360Z,13.87
2022-09-11T04:52:58.840Z,13.86
2022-09-11T04:54:04.207Z,13.85
2022-09-11T04:55:12.011Z,13.85
2022-09-11T04:56:16.267Z,13.85
2022-09-11T04:57:22.413Z,13.87
2022-09-11T04:58:26.512Z,13.88
2022-09-11T04:59:29.681Z,13.89
2022-09-11T05:00:43.421Z,13.88
2022-09-11T05:01:46.756Z,13.88
2022-09-11T05:02:53.431Z,13.89
2022-09-11T05:03:56.872Z,13.90
2022-09-11T05:05:03.018Z,13.92
2022-09-11T05:06:06.340Z,13.95
2022-09-11T05:07:14.662Z,13.93
2022-09-11T05:08:24.930Z,13.96
2022-09-11T05:09:30.172Z,13.96
2022-09-11T05:10:38.142Z,14.00
2022-09-11T05:11:43.294Z,14.02
2022-09-11T05:12:46.547Z,14.05
2022-09-11T05:13:50.790Z,14.08
2022-09-11T05:14:53.894Z,14.12
2022-09-11T05:16:02.675Z,14.15
2022-09-11T05:17:06.782Z,14.18
2022-09-11T05:18:15.279Z,14.20
2022-09-11T05:19:19.240Z,14.22
2022-09-11T05:20:25.858Z,14.23
2022-09-11T05:21:29.137Z,14.26
2022-09-11T05:22:33.287Z,14.26
2022-09-11T05:23:37.742Z,14.27
2022-09-11T05:24:42.613Z,14.29
2022-09-11T05:25:45.821Z,14.29
2022-09-11T05:26:50.238Z,14.29
2022-09-11T05:27:53.432Z,14.30
2022-09-11T05:28:58.252Z,14.30
2022-09-11T05:30:01.807Z,14.32
2022-09-11T05:31:12.942Z,14.33
2022-09-11T05:32:17.197Z,14.33
2022-09-11T05:33:20.662Z,14.32
2022-09-11T05:34:24.970Z,14.33
2022-09-11T05:35:32.354Z,14.33
2022-09-11T05:36:37.606Z,14.36
2022-09-11T05:37:41.562Z,14.37
2022-09-11T05:38:47.476Z,14.39
2022-09-11T05:39:52.323Z,14.38
2022-09-11T05:40:56.849Z,14.37
2022-09-11T05:42:00.679Z,14.37
2022-09-11T05:43:07.890Z,14.36
2022-09-11T05:44:11.046Z,14.37
2022-09-11T05:45:15.607Z,14.36
2022-09-11T05:46:20.130Z,14.36
2022-09-11T05:47:28.695Z,14.36
2022-09-11T05:48:34.319Z,14.34
2022-09-11T05:49:39.838Z,14.31
2022-09-11T05:50:44.508Z,14.28
2022-09-11T05:51:48.540Z,14.28
2022-09-11T05:52:52.065Z,14.28
2022-09-11T05:53:57.032Z,14.30
2022-09-11T05:55:00.292Z,14.33
2022-09-11T05:56:10.962Z,14.37
2022-09-11T05:57:15.488Z,14.40
2022-09-11T05:58:19.550Z,14.42
2022-09-11T05:59:24.315Z,14.43
2022-09-11T06:00:27.992Z,14.42
2022-09-11T06:01:34.291Z,14.43
2022-09-11T06:02:46.042Z,14.43
2022-09-11T06:03:50.381Z,14.46
2022-09-11T06:04:56.710Z,14.49
2022-09-11T06:06:03.728Z,14.54
2022-09-11T06:07:07.011Z,14.57
2022-09-11T06:08:13.370Z,14.59
2022-09-11T06:09:16.666Z,14.59
2022-09-11T06:10:21.442Z,14.58
2022-09-11T06:11:24.473Z,14.58
2022-09-11T06:12:28.909Z,14.58
2022-09-11T06:13:35.949Z,14.59
2022-09-11T06:14:40.616Z,14.63
2022-09-11T06:15:46.874Z,14.66
2022-09-11T06:16:52.387Z,14.68
2022-09-11T06:17:56.241Z,14.71
2022-09-11T06:19:00.282Z,14.72
2022-09-11T06:20:04.174Z,14.71
2022-09-11T06:21:13.203Z,14.69
2022-09-11T06:22:23.952Z,14.69
2022-09-11T06:23:30.189Z,14.70
2022-09-11T06:24:35.407Z,14.71
2022-09-11T06:25:39.760Z,14.75
2022-09-11T06:26:46.712Z,14.77
2022-09-11T06:27:50.764Z,14.78
2022-09-11T06:28:56.077Z,14.80
2022-09-11T06:30:00.252Z,14.81
2022-09-11T06:31:05.648Z,14.81
2022-09-11T06:32:11.274Z,14.81
2022-09-11T06:33:15.751Z,14.82
2022-09-11T06:34:21.361Z,14.82
2022-09-11T06:35:26.729Z,14.84
2022-09-11T06:36:32.295Z,14.85
2022-09-11T06:37:39.119Z,14.88
2022-09-11T06:38:44.591Z,14.91
2022-09-11T06:39:51.660Z,14.93
2022-09-11T06:41:03.205Z,14.94
2022-09-11T06:42:10.929Z,14.95
2022-09-11T06:43:15.076Z,14.95
2022-09-11T06:44:19.444Z,14.95
2022-09-11T06:45:22.599Z,14.94
2022-09-11T06:46:27.286Z,14.93
2022-09-11T06:47:32.962Z,14.91
2022-09-11T06:48:37.272Z,14.92
2022-09-11T06:49:41.882Z,14.89
2022-09-11T06:51:14.189Z,14.90
2022-09-11T06:52:20.030Z,14.88
2022-09-11T06:53:36.690Z,14.91
2022-09-11T06:54:44.761Z,14.93
2022-09-11T06:55:52.082Z,14.94
2022-09-11T06:56:55.202Z,14.95
2022-09-11T06:57:59.350Z,14.98
2022-09-11T06:59:06.646Z,15.01
2022-09-11T07:00:11.068Z,15.05
2022-09-11T07:01:19.354Z,15.07
2022-09-11T07:02:26.994Z,15.07
2022-09-11T07:03:32.424Z,15.09
2022-09-11T07:04:37.291Z,15.09
2022-09-11T07:05:47.659Z,15.09
2022-09-11T07:06:54.101Z,15.09
2022-09-11T07:08:02.238Z,15.09
2022-09-11T07:09:11.714Z,15.09
2022-09-11T07:10:25.379Z,15.08
2022-09-11T07:11:36.403Z,15.06
2022-09-11T07:12:41.620Z,15.05
2022-09-11T07:13:46.210Z,15.04
2022-09-11T07:14:50.710Z,15.04
2022-09-11T07:16:01.804Z,15.03
2022-09-11T07:17:05.554Z,15.02
2022-09-11T07:18:09.880Z,15.03
2022-09-11T07:19:12.990Z,15.04
2022-09-11T07:20:18.854Z,15.04
2022-09-11T07:21:26.889Z,15.03
2022-09-11T07:22:35.301Z,15.04
2022-09-11T07:23:42.430Z,15.03
2022-09-11T07:24:47.481Z,15.04
2022-09-11T07:25:53.618Z,15.06
2022-09-11T07:26:56.661Z,15.10
2022-09-11T07:28:07.906Z,15.15
2022-09-11T07:29:11.911Z,15.18
2022-09-11T07:30:16.414Z,15.21
2022-09-11T07:31:25.920Z,15.23
2022-09-11T07:32:29.354Z,15.27
2022-09-11T07:33:33.519Z,15.27
2022-09-11T07:34:39.788Z,15.30
2022-09-11T07:35:46.661Z,15.32
2022-09-11T07:36:52.175Z,15.34
2022-09-11T07:37:58.860Z,15.38
2022-09-11T07:39:05.129Z,15.38
2022-09-11T07:40:14.594Z,15.41
2022-09-11T07:41:20.017Z,15.44
2022-09-11T07:42:24.309Z,15.47
2022-09-11T07:43:28.732Z,15.54
2022-09-11T07:44:32.006Z,15.60
2022-09-11T07:45:36.368Z,15.67
2022-09-11T07:46:41.753Z,15.73
2022-09-11T07:47:47.680Z,15.77
2022-09-11T07:48:51.612Z,15.80
2022-09-11T07:49:55.708Z,15.84
2022-09-11T07:51:02.543Z,15.86
2022-09-11T07:52:07.958Z,15.89
2022-09-11T07:53:19.723Z,15.93
2022-09-11T07:54:29.230Z,15.94
2022-09-11T07:55:35.040Z,15.95
2022-09-11T07:56:41.439Z,15.94
2022-09-11T07:57:47.396Z,15.94
2022-09-11T07:58:52.530Z,15.91
2022-09-11T07:59:56.096Z,15.93
2022-09-11T08:01:00.657Z,15.94
2022-09-11T08:02:04.500Z,15.96
2022-09-11T08:03:09.229Z,15.99
2022-09-11T08:04:14.701Z,16.00
2022-09-11T08:05:19.307Z,16.01
2022-09-11T08:06:24.093Z,16.04
2022-09-11T08:07:30.106Z,16.07
2022-09-11T08:08:33.542Z,16.11
2022-09-11T08:09:39.386Z,16.15
2022-09-11T08:10:43.065Z,16.19
2022-09-11T08:11:49.030Z,16.25
2022-09-11T08:12:59.401Z,16.35
2022-09-11T08:14:07.606Z,16.45
2022-09-11T08:15:11.841Z,16.55
2022-09-11T08:16:15.019Z,16.67
2022-09-11T08:17:20.382Z,16.75
2022-09-11T08:18:25.380Z,16.87
2022-09-11T08:19:28.537Z,16.96
2022-09-11T08:20:36.660Z,17.03
2022-09-11T08:21:39.929Z,17.14
2022-09-11T08:22:44.229Z,17.22
2022-09-11T08:23:49.289Z,17.33
2022-09-11T08:24:54.851Z,17.42
2022-09-11T08:25:59.430Z,17.54
2022-09-11T08:27:06.207Z,17.63
2022-09-11T08:28:13.641Z,17.74
2022-09-11T08:29:18.462Z,17.79
2022-09-11T08:30:24.551Z,17.87
2022-09-11T08:31:28.514Z,17.96
2022-09-11T08:32:35.346Z,18.05
2022-09-11T08:33:39.027Z,18.18
2022-09-11T08:34:44.647Z,18.29
2022-09-11T08:35:47.822Z,18.44
2022-09-11T08:36:52.241Z,18.52
2022-09-11T08:37:55.752Z,18.60
2022-09-11T08:39:03.063Z,18.61
2022-09-11T08:40:12.115Z,18.60
2022-09-11T08:41:34.156Z,18.58
2022-09-11T08:42:41.780Z,18.51
2022-09-11T08:43:51.089Z,18.46
2022-09-11T08:44:57.423Z,18.38
2022-09-11T08:46:22.259Z,18.31
2022-09-11T08:47:28.049Z,18.31
2022-09-11T08:48:48.807Z,18.36
2022-09-11T08:49:57.206Z,18.45
2022-09-11T08:51:01.563Z,18.58
2022-09-11T08:52:06.600Z,18.67
2022-09-11T08:53:15.630Z,18.72
2022-09-11T08:54:27.784Z,18.75
2022-09-11T08:55:39.891Z,18.73
2022-09-11T08:56:45.763Z,18.69
2022-09-11T08:57:55.154Z,18.72
2022-09-11T08:59:19.366Z,18.79
2022-09-11T09:00:26.225Z,18.83
2022-09-11T09:01:39.016Z,18.91
2022-09-11T09:03:08.957Z,18.99
2022-09-11T09:04:36.308Z,18.97
2022-09-11T09:05:44.243Z,18.87
2022-09-11T09:06:58.883Z,18.79
2022-09-11T09:08:14.739Z,18.77
2022-09-11T09:09:24.712Z,18.73
2022-09-11T09:10:42.940Z,18.72
2022-09-11T09:11:52.829Z,18.70
2022-09-11T09:13:02.532Z,18.65
2022-09-11T09:14:20.820Z,18.57
2022-09-11T09:15:32.854Z,18.51
2022-09-11T09:16:45.664Z,18.47
2022-09-11T09:17:58.794Z,18.40
2022-09-11T09:19:08.727Z,18.35
2022-09-11T09:20:15.070Z,18.36
2022-09-11T09:21:25.333Z,18.43
2022-09-11T09:22:35.360Z,18.48
2022-09-11T09:23:41.794Z,18.57
2022-09-11T09:24:50.286Z,18.67
2022-09-11T09:25:56.103Z,18.75
2022-09-11T09:27:00.801Z,18.86
2022-09-11T09:28:08.651Z,18.99
2022-09-11T09:29:20.778Z,19.09
2022-09-11T09:30:27.735Z,19.15
2022-09-11T09:31:34.079Z,19.21
2022-09-11T09:32:43.213Z,19.22
2022-09-11T09:33:50.164Z,19.18
2022-09-11T09:34:57.901Z,19.08
2022-09-11T09:36:13.043Z,18.96
2022-09-11T09:37:20.462Z,18.82
2022-09-11T09:38:28.914Z,18.70
2022-09-11T09:39:32.565Z,18.58
2022-09-11T09:40:37.651Z,18.44
2022-09-11T09:41:57.419Z,18.31
2022-09-11T09:43:19.301Z,18.19
2022-09-11T09:44:30.360Z,18.13
2022-09-11T09:45:40.893Z,18.17
2022-09-11T09:46:50.157Z,18.22
2022-09-11T09:47:55.242Z,18.31
2022-09-11T09:48:58.652Z,18.39
2022-09-11T09:50:02.776Z,18.48
2022-09-11T09:51:06.431Z,18.53
2022-09-11T09:52:18.359Z,18.58
2022-09-11T09:53:29.692Z,18.57
2022-09-11T09:54:36.657Z,18.54
2022-09-11T09:55:40.643Z,18.59
2022-09-11T09:56:46.081Z,18.62
2022-09-11T09:57:51.369Z,18.62
2022-09-11T09:59:01.176Z,18.67
2022-09-11T10:00:06.915Z,18.65
2022-09-11T10:01:45.362Z,18.66
2022-09-11T10:02:54.405Z,18.70
2022-09-11T10:04:11.326Z,18.78
2022-09-11T10:05:23.638Z,18.81
2022-09-11T10:06:38.581Z,18.80
2022-09-11T10:07:48.100Z,18.78
2022-09-11T10:09:00.191Z,18.77
2022-09-11T10:10:12.736Z,18.76
2022-09-11T10:11:18.349Z,18.78
2022-09-11T10:12:24.711Z,18.76
2022-09-11T10:13:32.504Z,18.72
2022-09-11T10:14:51.921Z,18.73
2022-09-11T10:15:59.845Z,18.76
2022-09-11T10:17:03.215Z,18.78
2022-09-11T10:18:38.321Z,18.81
2022-09-11T10:19:44.152Z,18.76
2022-09-11T10:20:48.414Z,18.70
2022-09-11T10:21:51.731Z,18.68
2022-09-11T10:22:56.486Z,18.63
2022-09-11T10:24:00.775Z,18.66
2022-09-11T10:25:11.912Z,18.67
2022-09-11T10:26:16.919Z,18.66
2022-09-11T10:27:22.459Z,18.62
2022-09-11T10:28:34.502Z,18.55
2022-09-11T10:29:51.304Z,18.52
2022-09-11T10:31:00.435Z,18.47
2022-09-11T10:32:05.624Z,18.43
2022-09-11T10:33:27.133Z,18.42
2022-09-11T10:34:36.759Z,18.38
2022-09-11T10:35:40.870Z,18.34
2022-09-11T10:36:52.910Z,18.20
2022-09-11T10:38:12.088Z,18.04
2022-09-11T10:39:19.250Z,17.88
2022-09-11T10:40:23.636Z,17.78
2022-09-11T10:41:29.753Z,17.71
2022-09-11T10:42:35.363Z,17.64
2022-09-11T10:43:48.664Z,17.59
2022-09-11T10:44:52.941Z,17.51
2022-09-11T10:46:07.365Z,17.44
2022-09-11T10:47:20.616Z,17.39
2022-09-11T10:48:25.782Z,17.33
2022-09-11T10:49:29.760Z,17.29
2022-09-11T10:50:34.566Z,17.26
2022-09-11T10:51:43.099Z,17.20
2022-09-11T10:52:54.079Z,17.06
2022-09-11T10:54:10.292Z,16.90
2022-09-11T10:55:15.721Z,16.76
2022-09-11T10:56:23.574Z,16.66
2022-09-11T10:57:31.348Z,16.55
2022-09-11T10:58:38.260Z,16.49
2022-09-11T10:59:51.620Z,16.44
2022-09-11T11:00:55.596Z,16.38
2022-09-11T11:01:59.137Z,16.39
2022-09-11T11:03:06.727Z,16.41
2022-09-11T11:04:12.434Z,16.42
2022-09-11T11:05:26.357Z,16.47
2022-09-11T11:06:42.835Z,16.44
2022-09-11T11:08:06.413Z,16.37
2022-09-11T11:09:17.243Z,16.23
2022-09-11T11:10:31.454Z,16.15
2022-09-11T11:11:46.578Z,16.06
2022-09-11T11:12:59.379Z,15.98
2022-09-11T11:14:15.765Z,15.86
2022-09-11T11:15:39.827Z,15.80
2022-09-11T11:16:56.964Z,15.77
2022-09-11T11:18:19.060Z,15.75
2022-09-11T11:19:38.777Z,15.72
2022-09-11T11:20:48.254Z,15.74
2022-09-11T11:21:57.576Z,15.72
2022-09-11T11:23:20.499Z,15.75
2022-09-11T11:24:55.453Z,15.79
2022-09-11T11:26:29.778Z,15.85
2022-09-11T11:28:03.344Z,15.87
2022-09-11T11:29:33.114Z,15.88
2022-09-11T11:30:43.403Z,15.88
2022-09-11T11:31:57.566Z,15.91
2022-09-11T11:33:34.348Z,15.95
2022-09-11T11:35:01.744Z,16.02
2022-09-11T11:36:09.108Z,16.09
2022-09-11T11:37:16.961Z,16.18
2022-09-11T11:38:26.274Z,16.28
2022-09-11T11:39:31.846Z,16.40
2022-09-11T11:40:40.815Z,16.54
2022-09-11T11:41:47.125Z,16.72
2022-09-11T11:42:56.204Z,16.92
2022-09-11T11:44:03.937Z,17.16
2022-09-11T11:45:22.384Z,17.34
2022-09-11T11:46:36.637Z,17.56
2022-09-11T11:47:55.412Z,17.98
2022-09-11T11:49:05.409Z,18.33
2022-09-11T11:50:22.603Z,18.68
2022-09-11T11:51:37.593Z,19.11
2022-09-11T11:52:59.490Z,19.43
2022-09-11T11:54:20.114Z,19.55
2022-09-11T11:55:32.904Z,19.62
2022-09-11T11:56:53.823Z,19.76
2022-09-11T11:58:08.226Z,19.82
2022-09-11T11:59:25.558Z,19.71
2022-09-11T12:00:43.775Z,19.65
2022-09-11T12:01:56.353Z,19.52
2022-09-11T12:03:03.718Z,19.49
2022-09-11T12:04:18.024Z,19.48
2022-09-11T12:05:24.327Z,19.45
2022-09-11T12:06:29.457Z,19.42
2022-09-11T12:07:34.475Z,19.38
2022-09-11T12:08:44.938Z,19.29
2022-09-11T12:09:49.747Z,19.19
2022-09-11T12:10:57.656Z,19.10
2022-09-11T12:12:06.078Z,18.99
2022-09-11T12:13:15.427Z,18.89
2022-09-11T12:14:27.787Z,18.74
2022-09-11T12:15:34.814Z,18.63
2022-09-11T12:16:39.049Z,18.54
2022-09-11T12:17:45.426Z,18.40
2022-09-11T12:19:06.400Z,18.25
2022-09-11T12:20:36.163Z,18.05
2022-09-11T12:21:42.365Z,17.91
2022-09-11T12:22:47.616Z,17.86
2022-09-11T12:24:13.583Z,17.85
2022-09-11T12:26:00.121Z,17.81
2022-09-11T12:27:40.287Z,17.76
2022-09-11T12:28:43.421Z,17.69
2022-09-11T12:30:09.712Z,17.62
2022-09-11T12:31:15.021Z,17.52
2022-09-11T12:32:45.283Z,17.42
2022-09-11T12:33:56.312Z,17.32
2022-09-11T12:35:21.794Z,17.27
2022-09-11T12:36:36.394Z,17.26
2022-09-11T12:37:39.872Z,17.27
2022-09-11T12:38:47.026Z,17.32
2022-09-11T12:39:53.335Z,17.36
2022-09-11T12:41:00.049Z,17.39
2022-09-11T12:42:41.067Z,17.48
2022-09-11T12:43:50.022Z,17.56
2022-09-11T12:45:01.025Z,17.63
2022-09-11T12:46:05.521Z,17.69
2022-09-11T12:47:16.901Z,17.79
2022-09-11T12:48:26.211Z,17.90
2022-09-11T12:49:29.297Z,17.98
2022-09-11T12:50:34.086Z,18.04
2022-09-11T12:51:39.726Z,18.12
2022-09-11T12:52:51.133Z,18.13
2022-09-11T12:54:00.564Z,18.16
2022-09-11T12:55:09.813Z,18.16
2022-09-11T12:56:19.471Z,18.13
2022-09-11T12:57:28.353Z,18.12
2022-09-11T12:58:39.107Z,18.11
2022-09-11T12:59:44.725Z,18.11
2022-09-11T13:00:52.047Z,18.11
2022-09-11T13:01:55.174Z,18.09
2022-09-11T13:02:59.844Z,18.08
2022-09-11T13:04:13.249Z,18.05
2022-09-11T13:05:19.934Z,18.00
2022-09-11T13:06:23.795Z,17.98
2022-09-11T13:07:32.407Z,17.97
2022-09-11T13:08:38.637Z,17.97
2022-09-11T13:09:43.650Z,17.94
2022-09-11T13:10:47.129Z,17.92
2022-09-11T13:12:35.756Z,17.95
2022-09-11T13:13:44.487Z,17.97
2022-09-11T13:14:52.525Z,18.04
2022-09-11T13:15:58.866Z,18.11
2022-09-11T13:17:02.893Z,18.18
2022-09-11T13:18:40.171Z,18.28
2022-09-11T13:19:44.757Z,18.30
2022-09-11T13:21:01.220Z,18.31
2022-09-11T13:22:20.861Z,18.29
2022-09-11T13:23:25.453Z,18.29
2022-09-11T13:24:30.429Z,18.29
2022-09-11T13:25:34.715Z,18.28
2022-09-11T13:26:37.937Z,18.26
2022-09-11T13:27:44.032Z,18.30
2022-09-11T13:28:49.526Z,18.33
2022-09-11T13:29:54.980Z,18.35
2022-09-11T13:31:00.766Z,18.42
2022-09-11T13:32:11.662Z,18.49
2022-09-11T13:33:18.649Z,18.57
2022-09-11T13:34:24.417Z,18.66
2022-09-11T13:35:30.286Z,18.73
2022-09-11T13:36:36.537Z,18.78
2022-09-11T13:37:42.180Z,18.81
2022-09-11T13:38:49.579Z,18.88
2022-09-11T13:39:52.789Z,18.96
2022-09-11T13:40:58.276Z,19.11
2022-09-11T13:42:03.007Z,19.26
2022-09-11T13:43:07.134Z,19.38
2022-09-11T13:44:12.084Z,19.53
2022-09-11T13:45:18.346Z,19.71
2022-09-11T13:46:23.954Z,19.87
2022-09-11T13:47:29.414Z,20.01
2022-09-11T13:48:32.456Z,20.07
2022-09-11T13:49:39.184Z,20.16
2022-09-11T13:50:43.735Z,20.22
2022-09-11T13:51:49.089Z,20.26
2022-09-11T13:52:52.873Z,20.26
2022-09-11T13:54:00.318Z,20.27
2022-09-11T13:55:10.886Z,20.27
2022-09-11T13:56:21.581Z,20.30
2022-09-11T13:57:28.324Z,20.28
2022-09-11T13:58:35.372Z,20.25
2022-09-11T13:59:43.154Z,20.21
2022-09-11T14:00:46.450Z,20.20
2022-09-11T14:01:55.722Z,20.20
2022-09-11T14:03:00.309Z,20.20
2022-09-11T14:04:05.026Z,20.19
2022-09-11T14:05:15.623Z,20.16
2022-09-11T14:06:21.272Z,20.03
2022-09-11T14:07:26.885Z,19.89
2022-09-11T14:08:34.474Z,19.73
2022-09-11T14:09:37.437Z,19.58
2022-09-11T14:10:48.169Z,19.45
2022-09-11T14:11:51.309Z,19.33
2022-09-11T14:13:00.335Z,19.25
2022-09-11T14:14:09.137Z,19.17
2022-09-11T14:15:21.173Z,19.08
2022-09-11T14:16:28.120Z,18.96
2022-09-11T14:17:31.579Z,18.84
2022-09-11T14:18:39.017Z,18.61
2022-09-11T14:19:43.484Z,18.18
2022-09-11T14:20:47.936Z,17.74
2022-09-11T14:21:54.149Z,17.32
2022-09-11T14:22:59.976Z,16.96
2022-09-11T14:24:07.459Z,16.70
2022-09-11T14:25:19.837Z,16.45
2022-09-11T14:26:25.365Z,16.24
2022-09-11T14:27:38.081Z,16.07
2022-09-11T14:28:44.892Z,15.94
2022-09-11T14:29:53.656Z,15.82
2022-09-11T14:31:08.145Z,15.71
2022-09-11T14:32:32.064Z,15.61
2022-09-11T14:33:35.360Z,15.51
2022-09-11T14:34:39.509Z,15.46
2022-09-11T14:35:43.180Z,15.42
2022-09-11T14:39:47.677Z,15.21
2022-09-11T14:40:55.417Z,15.16
2022-09-11T14:42:00.240Z,15.10
2022-09-11T14:43:03.914Z,15.03
2022-09-11T14:44:09.273Z,14.99
2022-09-11T14:45:20.205Z,14.96
2022-09-11T14:46:24.264Z,14.92
2022-09-11T14:50:18.897Z,14.80
2022-09-11T14:51:22.069Z,14.79
2022-09-11T14:52:29.411Z,14.78
2022-09-11T14:53:33.810Z,14.77
2022-09-11T14:54:37.787Z,14.75
2022-09-11T14:55:40.795Z,14.73
2022-09-11T14:56:46.805Z,14.74
2022-09-11T14:57:50.506Z,14.74
2022-09-11T14:58:55.278Z,14.74
2022-09-11T14:59:59.807Z,14.76
2022-09-11T15:01:04.166Z,14.77
2022-09-11T15:02:11.685Z,14.77
2022-09-11T15:03:15.818Z,14.75
2022-09-11T15:04:20.873Z,14.72
2022-09-11T15:05:25.832Z,14.72
2022-09-11T15:06:30.011Z,14.71
2022-09-11T15:07:36.730Z,14.72
2022-09-11T15:08:40.862Z,14.73